sensor_id;sensor_type;location;lat;lon;timestamp;temperature;humidity
32524;DHT22;18965;52.242;20.886;2023-03-01T00:00:41;-0.60;72.70
32524;DHT22;18965;52.242;20.886;2023-03-01T00:03:06;-0.50;72.80
32524;DHT22;18965;52.242;20.886;2023-03-01T00:05:32;-0.50;72.60
32524;DHT22;18965;52.242;20.886;2023-03-01T00:07:58;-0.50;73.10
32524;DHT22;18965;52.242;20.886;2023-03-01T00:10:24;-0.50;72.80
32524;DHT22;18965;52.242;20.886;2023-03-01T00:15:15;-0.50;72.60
32524;DHT22;18965;52.242;20.886;2023-03-01T00:17:41;-0.40;73.40
32524;DHT22;18965;52.242;20.886;2023-03-01T00:20:07;-0.40;72.70
32524;DHT22;18965;52.242;20.886;2023-03-01T00:22:36;-0.40;73.30
32524;DHT22;18965;52.242;20.886;2023-03-01T00:25:02;-0.40;72.80
32524;DHT22;18965;52.242;20.886;2023-03-01T00:27:28;-0.40;73.30
32524;DHT22;18965;52.242;20.886;2023-03-01T00:29:53;-0.40;73.40
32524;DHT22;18965;52.242;20.886;2023-03-01T00:32:19;-0.40;73.30
32524;DHT22;18965;52.242;20.886;2023-03-01T00:34:45;-0.40;73.50
32524;DHT22;18965;52.242;20.886;2023-03-01T00:37:23;-0.40;73.60
32524;DHT22;18965;52.242;20.886;2023-03-01T00:39:49;-0.30;73.60
32524;DHT22;18965;52.242;20.886;2023-03-01T00:42:16;-0.40;73.50
32524;DHT22;18965;52.242;20.886;2023-03-01T00:44:41;-0.30;73.50
32524;DHT22;18965;52.242;20.886;2023-03-01T00:47:07;-0.40;73.40
32524;DHT22;18965;52.242;20.886;2023-03-01T00:49:33;-0.40;73.00
32524;DHT22;18965;52.242;20.886;2023-03-01T00:51:58;-0.30;73.50
32524;DHT22;18965;52.242;20.886;2023-03-01T00:54:24;-0.30;73.50
32524;DHT22;18965;52.242;20.886;2023-03-01T00:56:50;-0.30;73.50
32524;DHT22;18965;52.242;20.886;2023-03-01T00:59:15;-0.40;73.50
32524;DHT22;18965;52.242;20.886;2023-03-01T01:01:41;-0.30;73.60
32524;DHT22;18965;52.242;20.886;2023-03-01T01:04:09;-0.30;73.10
32524;DHT22;18965;52.242;20.886;2023-03-01T01:06:38;-0.30;73.20
32524;DHT22;18965;52.242;20.886;2023-03-01T01:09:06;-0.30;73.60
32524;DHT22;18965;52.242;20.886;2023-03-01T01:13:58;0.10;73.70
32524;DHT22;18965;52.242;20.886;2023-03-01T01:16:25;-0.40;73.30
32524;DHT22;18965;52.242;20.886;2023-03-01T01:18:51;-0.40;73.30
32524;DHT22;18965;52.242;20.886;2023-03-01T01:21:20;-0.30;73.50
32524;DHT22;18965;52.242;20.886;2023-03-01T01:23:46;-0.30;73.00
32524;DHT22;18965;52.242;20.886;2023-03-01T01:26:30;-0.40;73.50
32524;DHT22;18965;52.242;20.886;2023-03-01T01:28:57;-0.60;73.40
32524;DHT22;18965;52.242;20.886;2023-03-01T01:31:24;-0.50;73.40
32524;DHT22;18965;52.242;20.886;2023-03-01T01:33:50;-0.30;74.40
32524;DHT22;18965;52.242;20.886;2023-03-01T01:36:16;-0.30;73.90
32524;DHT22;18965;52.242;20.886;2023-03-01T01:38:43;-0.40;73.20
32524;DHT22;18965;52.242;20.886;2023-03-01T01:41:10;-0.50;73.60
32524;DHT22;18965;52.242;20.886;2023-03-01T01:43:41;-0.40;73.60
32524;DHT22;18965;52.242;20.886;2023-03-01T01:48:46;-0.30;73.70
32524;DHT22;18965;52.242;20.886;2023-03-01T01:51:17;-0.40;73.20
32524;DHT22;18965;52.242;20.886;2023-03-01T01:53:46;0.00;73.90
32524;DHT22;18965;52.242;20.886;2023-03-01T01:56:14;0.10;74.00
32524;DHT22;18965;52.242;20.886;2023-03-01T01:58:42;-0.30;73.80
32524;DHT22;18965;52.242;20.886;2023-03-01T02:01:09;-0.40;73.80
32524;DHT22;18965;52.242;20.886;2023-03-01T02:03:38;-0.40;73.40
32524;DHT22;18965;52.242;20.886;2023-03-01T02:06:28;-0.40;73.90
32524;DHT22;18965;52.242;20.886;2023-03-01T02:09:00;-0.40;73.90
32524;DHT22;18965;52.242;20.886;2023-03-01T02:13:54;-0.50;74.40
32524;DHT22;18965;52.242;20.886;2023-03-01T02:18:46;-0.40;73.80
32524;DHT22;18965;52.242;20.886;2023-03-01T02:26:51;-0.50;73.60
32524;DHT22;18965;52.242;20.886;2023-03-01T02:29:18;-0.40;73.60
32524;DHT22;18965;52.242;20.886;2023-03-01T02:31:44;-0.50;73.60
32524;DHT22;18965;52.242;20.886;2023-03-01T02:34:16;-0.50;73.60
32524;DHT22;18965;52.242;20.886;2023-03-01T02:36:46;-0.60;73.60
32524;DHT22;18965;52.242;20.886;2023-03-01T02:39:15;-0.50;74.10
32524;DHT22;18965;52.242;20.886;2023-03-01T02:41:48;-0.50;73.70
32524;DHT22;18965;52.242;20.886;2023-03-01T02:46:49;-0.50;73.80
32524;DHT22;18965;52.242;20.886;2023-03-01T02:49:20;-0.60;73.90
32524;DHT22;18965;52.242;20.886;2023-03-01T02:57:18;-0.50;74.00
32524;DHT22;18965;52.242;20.886;2023-03-01T02:59:44;-0.50;74.00
32524;DHT22;18965;52.242;20.886;2023-03-01T03:02:28;-0.40;74.30
32524;DHT22;18965;52.242;20.886;2023-03-01T03:05:15;-0.40;75.20
32524;DHT22;18965;52.242;20.886;2023-03-01T03:07:43;-0.50;73.80
32524;DHT22;18965;52.242;20.886;2023-03-01T03:10:13;-0.40;74.00
32524;DHT22;18965;52.242;20.886;2023-03-01T03:12:40;-0.40;74.10
32524;DHT22;18965;52.242;20.886;2023-03-01T03:15:08;-0.40;74.20
32524;DHT22;18965;52.242;20.886;2023-03-01T03:17:38;-0.40;73.90
32524;DHT22;18965;52.242;20.886;2023-03-01T03:20:07;-0.50;74.30
32524;DHT22;18965;52.242;20.886;2023-03-01T03:22:40;-0.50;74.80
32524;DHT22;18965;52.242;20.886;2023-03-01T03:25:07;-0.40;75.00
32524;DHT22;18965;52.242;20.886;2023-03-01T03:27:37;-0.40;74.70
32524;DHT22;18965;52.242;20.886;2023-03-01T03:30:05;-0.40;73.80
32524;DHT22;18965;52.242;20.886;2023-03-01T03:32:36;-0.50;74.50
32524;DHT22;18965;52.242;20.886;2023-03-01T03:35:03;-0.40;73.80
32524;DHT22;18965;52.242;20.886;2023-03-01T03:37:37;-0.40;74.30
32524;DHT22;18965;52.242;20.886;2023-03-01T03:40:21;-0.30;74.60
32524;DHT22;18965;52.242;20.886;2023-03-01T03:42:46;-0.30;75.00
32524;DHT22;18965;52.242;20.886;2023-03-01T03:47:39;0.40;75.20
32524;DHT22;18965;52.242;20.886;2023-03-01T03:50:05;-0.30;76.50
32524;DHT22;18965;52.242;20.886;2023-03-01T03:52:31;-0.40;75.20
32524;DHT22;18965;52.242;20.886;2023-03-01T03:54:56;-0.20;75.10
32524;DHT22;18965;52.242;20.886;2023-03-01T03:57:22;-0.70;78.80
32524;DHT22;18965;52.242;20.886;2023-03-01T04:02:14;-0.10;74.60
32524;DHT22;18965;52.242;20.886;2023-03-01T04:04:50;-0.30;73.80
32524;DHT22;18965;52.242;20.886;2023-03-01T04:07:16;-0.30;74.20
32524;DHT22;18965;52.242;20.886;2023-03-01T04:09:43;-0.20;74.00
32524;DHT22;18965;52.242;20.886;2023-03-01T04:12:09;-0.20;74.30
32524;DHT22;18965;52.242;20.886;2023-03-01T04:17:01;-0.20;76.20
32524;DHT22;18965;52.242;20.886;2023-03-01T04:19:33;-0.30;74.50
32524;DHT22;18965;52.242;20.886;2023-03-01T04:22:02;-0.10;74.90
32524;DHT22;18965;52.242;20.886;2023-03-01T04:24:37;-0.30;73.90
32524;DHT22;18965;52.242;20.886;2023-03-01T04:27:03;-0.30;74.70
32524;DHT22;18965;52.242;20.886;2023-03-01T04:34:21;-0.20;75.60
32524;DHT22;18965;52.242;20.886;2023-03-01T04:36:46;-0.30;75.50
32524;DHT22;18965;52.242;20.886;2023-03-01T04:39:12;-0.20;76.40
32524;DHT22;18965;52.242;20.886;2023-03-01T04:41:38;-0.10;76.80
32524;DHT22;18965;52.242;20.886;2023-03-01T04:44:05;-0.20;73.90
32524;DHT22;18965;52.242;20.886;2023-03-01T04:46:31;-0.40;75.70
32524;DHT22;18965;52.242;20.886;2023-03-01T04:48:57;-0.40;75.60
32524;DHT22;18965;52.242;20.886;2023-03-01T04:56:16;-0.20;73.70
32524;DHT22;18965;52.242;20.886;2023-03-01T04:58:43;-0.10;78.70
32524;DHT22;18965;52.242;20.886;2023-03-01T05:01:16;-0.30;79.10
32524;DHT22;18965;52.242;20.886;2023-03-01T05:03:47;-0.30;77.00
32524;DHT22;18965;52.242;20.886;2023-03-01T05:06:14;-0.10;76.70
32524;DHT22;18965;52.242;20.886;2023-03-01T05:08:40;-0.30;73.70
32524;DHT22;18965;52.242;20.886;2023-03-01T05:13:35;-0.30;77.60
32524;DHT22;18965;52.242;20.886;2023-03-01T05:16:01;-0.10;76.00
32524;DHT22;18965;52.242;20.886;2023-03-01T05:18:29;-0.20;73.80
32524;DHT22;18965;52.242;20.886;2023-03-01T05:21:03;-0.20;73.70
32524;DHT22;18965;52.242;20.886;2023-03-01T05:25:58;-0.30;76.50
32524;DHT22;18965;52.242;20.886;2023-03-01T05:28:25;-0.20;73.80
32524;DHT22;18965;52.242;20.886;2023-03-01T05:30:51;-0.10;80.00
32524;DHT22;18965;52.242;20.886;2023-03-01T05:35:44;-0.20;81.60
32524;DHT22;18965;52.242;20.886;2023-03-01T05:38:12;-0.10;73.90
32524;DHT22;18965;52.242;20.886;2023-03-01T05:40:46;-0.10;73.90
32524;DHT22;18965;52.242;20.886;2023-03-01T05:43:13;-0.10;74.00
32524;DHT22;18965;52.242;20.886;2023-03-01T05:45:40;0.00;74.00
32524;DHT22;18965;52.242;20.886;2023-03-01T05:50:35;0.00;74.00
32524;DHT22;18965;52.242;20.886;2023-03-01T05:53:10;0.10;73.90
32524;DHT22;18965;52.242;20.886;2023-03-01T05:55:37;0.10;73.90
32524;DHT22;18965;52.242;20.886;2023-03-01T05:58:05;0.10;73.80
32524;DHT22;18965;52.242;20.886;2023-03-01T06:00:32;0.20;73.90
32524;DHT22;18965;52.242;20.886;2023-03-01T06:02:59;0.30;73.90
32524;DHT22;18965;52.242;20.886;2023-03-01T06:05:26;0.30;73.90
32524;DHT22;18965;52.242;20.886;2023-03-01T06:10:19;0.40;73.70
32524;DHT22;18965;52.242;20.886;2023-03-01T06:15:13;0.60;73.80
32524;DHT22;18965;52.242;20.886;2023-03-01T06:17:41;0.70;73.80
32524;DHT22;18965;52.242;20.886;2023-03-01T06:20:21;0.70;78.00
32524;DHT22;18965;52.242;20.886;2023-03-01T06:25:17;0.90;73.60
32524;DHT22;18965;52.242;20.886;2023-03-01T06:27:44;0.80;73.50
32524;DHT22;18965;52.242;20.886;2023-03-01T06:30:12;1.00;73.50
32524;DHT22;18965;52.242;20.886;2023-03-01T06:32:40;1.10;79.40
32524;DHT22;18965;52.242;20.886;2023-03-01T06:35:11;3.10;74.60
32524;DHT22;18965;52.242;20.886;2023-03-01T06:37:37;1.20;74.00
32524;DHT22;18965;52.242;20.886;2023-03-01T06:40:04;1.30;73.30
32524;DHT22;18965;52.242;20.886;2023-03-01T06:42:39;1.80;78.20
32524;DHT22;18965;52.242;20.886;2023-03-01T06:45:06;1.60;83.40
32524;DHT22;18965;52.242;20.886;2023-03-01T06:47:33;1.40;81.30
32524;DHT22;18965;52.242;20.886;2023-03-01T06:49:59;1.60;73.00
32524;DHT22;18965;52.242;20.886;2023-03-01T06:52:25;1.60;81.40
32524;DHT22;18965;52.242;20.886;2023-03-01T07:02:13;1.70;72.50
32524;DHT22;18965;52.242;20.886;2023-03-01T07:09:32;1.90;81.50
32524;DHT22;18965;52.242;20.886;2023-03-01T07:16:54;1.90;72.40
32524;DHT22;18965;52.242;20.886;2023-03-01T07:21:47;1.90;78.70
32524;DHT22;18965;52.242;20.886;2023-03-01T07:26:39;2.30;78.70
32524;DHT22;18965;52.242;20.886;2023-03-01T07:29:07;2.30;72.10
32524;DHT22;18965;52.242;20.886;2023-03-01T07:31:33;2.20;78.20
32524;DHT22;18965;52.242;20.886;2023-03-01T07:33:59;2.30;78.80
32524;DHT22;18965;52.242;20.886;2023-03-01T07:36:25;2.40;72.00
32524;DHT22;18965;52.242;20.886;2023-03-01T07:38:51;2.40;77.50
32524;DHT22;18965;52.242;20.886;2023-03-01T07:41:16;2.40;77.50
32524;DHT22;18965;52.242;20.886;2023-03-01T07:43:42;2.50;80.20
32524;DHT22;18965;52.242;20.886;2023-03-01T07:48:35;2.70;79.00
32524;DHT22;18965;52.242;20.886;2023-03-01T07:51:02;2.70;79.60
32524;DHT22;18965;52.242;20.886;2023-03-01T07:53:28;2.60;71.80
32524;DHT22;18965;52.242;20.886;2023-03-01T07:56:03;2.80;71.60
32524;DHT22;18965;52.242;20.886;2023-03-01T08:00:55;2.50;77.60
32524;DHT22;18965;52.242;20.886;2023-03-01T08:08:13;3.20;74.40
32524;DHT22;18965;52.242;20.886;2023-03-01T08:13:05;3.50;76.50
32524;DHT22;18965;52.242;20.886;2023-03-01T08:20:22;3.70;75.30
32524;DHT22;18965;52.242;20.886;2023-03-01T08:25:14;3.90;74.30
32524;DHT22;18965;52.242;20.886;2023-03-01T08:27:40;4.20;71.20
32524;DHT22;18965;52.242;20.886;2023-03-01T08:30:06;4.20;73.70
32524;DHT22;18965;52.242;20.886;2023-03-01T08:32:36;4.40;70.40
32524;DHT22;18965;52.242;20.886;2023-03-01T08:35:02;4.50;70.20
32524;DHT22;18965;52.242;20.886;2023-03-01T08:39:56;4.50;75.90
32524;DHT22;18965;52.242;20.886;2023-03-01T08:44:48;4.80;69.70
32524;DHT22;18965;52.242;20.886;2023-03-01T08:47:14;4.80;69.70
32524;DHT22;18965;52.242;20.886;2023-03-01T08:49:39;4.90;70.20
32524;DHT22;18965;52.242;20.886;2023-03-01T08:54:31;5.10;70.10
32524;DHT22;18965;52.242;20.886;2023-03-01T08:59:25;5.30;69.60
32524;DHT22;18965;52.242;20.886;2023-03-01T09:04:17;5.50;70.30
32524;DHT22;18965;52.242;20.886;2023-03-01T09:06:43;5.50;69.60
32524;DHT22;18965;52.242;20.886;2023-03-01T09:09:14;5.60;70.60
32524;DHT22;18965;52.242;20.886;2023-03-01T09:11:40;5.80;69.10
32524;DHT22;18965;52.242;20.886;2023-03-01T09:16:32;5.80;68.30
32524;DHT22;18965;52.242;20.886;2023-03-01T09:19:02;5.90;67.70
32524;DHT22;18965;52.242;20.886;2023-03-01T09:21:28;6.00;67.70
32524;DHT22;18965;52.242;20.886;2023-03-01T09:23:56;6.10;67.90
32524;DHT22;18965;52.242;20.886;2023-03-01T09:26:23;6.10;67.50
32524;DHT22;18965;52.242;20.886;2023-03-01T09:28:50;6.10;67.30
32524;DHT22;18965;52.242;20.886;2023-03-01T09:31:18;6.10;67.40
32524;DHT22;18965;52.242;20.886;2023-03-01T09:33:46;6.10;66.90
32524;DHT22;18965;52.242;20.886;2023-03-01T09:36:15;6.10;66.80
32524;DHT22;18965;52.242;20.886;2023-03-01T09:38:42;6.00;67.30
32524;DHT22;18965;52.242;20.886;2023-03-01T09:43:55;5.90;66.80
32524;DHT22;18965;52.242;20.886;2023-03-01T09:46:24;6.00;67.50
32524;DHT22;18965;52.242;20.886;2023-03-01T09:49:15;5.90;68.90
32524;DHT22;18965;52.242;20.886;2023-03-01T09:51:48;5.80;68.30
32524;DHT22;18965;52.242;20.886;2023-03-01T10:04:50;5.90;68.60
32524;DHT22;18965;52.242;20.886;2023-03-01T10:10:01;5.90;68.30
32524;DHT22;18965;52.242;20.886;2023-03-01T10:12:35;5.90;68.00
32524;DHT22;18965;52.242;20.886;2023-03-01T10:15:34;6.00;67.90
32524;DHT22;18965;52.242;20.886;2023-03-01T10:18:04;5.90;67.00
32524;DHT22;18965;52.242;20.886;2023-03-01T10:20:57;6.00;66.90
32524;DHT22;18965;52.242;20.886;2023-03-01T10:23:25;6.00;67.40
32524;DHT22;18965;52.242;20.886;2023-03-01T10:30:50;6.00;67.30
32524;DHT22;18965;52.242;20.886;2023-03-01T10:33:32;6.00;67.40
32524;DHT22;18965;52.242;20.886;2023-03-01T10:36:01;5.70;66.50
32524;DHT22;18965;52.242;20.886;2023-03-01T10:38:31;6.00;66.70
32524;DHT22;18965;52.242;20.886;2023-03-01T10:40:59;6.10;67.40
32524;DHT22;18965;52.242;20.886;2023-03-01T10:49:23;6.20;66.60
32524;DHT22;18965;52.242;20.886;2023-03-01T10:51:52;6.10;67.90
32524;DHT22;18965;52.242;20.886;2023-03-01T10:56:52;6.30;66.60
32524;DHT22;18965;52.242;20.886;2023-03-01T10:59:38;6.30;67.80
32524;DHT22;18965;52.242;20.886;2023-03-01T11:02:29;6.40;68.00
32524;DHT22;18965;52.242;20.886;2023-03-01T11:05:42;6.40;67.70
32524;DHT22;18965;52.242;20.886;2023-03-01T11:07:58;6.50;66.50
32524;DHT22;18965;52.242;20.886;2023-03-01T11:10:29;6.60;67.80
32524;DHT22;18965;52.242;20.886;2023-03-01T11:13:15;6.60;67.70
32524;DHT22;18965;52.242;20.886;2023-03-01T11:15:42;6.70;66.60
32524;DHT22;18965;52.242;20.886;2023-03-01T11:18:22;6.80;66.90
32524;DHT22;18965;52.242;20.886;2023-03-01T11:20:49;6.90;66.30
32524;DHT22;18965;52.242;20.886;2023-03-01T11:23:17;6.90;66.60
32524;DHT22;18965;52.242;20.886;2023-03-01T11:25:54;7.00;66.40
32524;DHT22;18965;52.242;20.886;2023-03-01T11:28:22;7.00;66.30
32524;DHT22;18965;52.242;20.886;2023-03-01T11:33:44;7.10;66.10
32524;DHT22;18965;52.242;20.886;2023-03-01T11:36:30;7.20;66.10
32524;DHT22;18965;52.242;20.886;2023-03-01T11:39:03;7.20;65.80
32524;DHT22;18965;52.242;20.886;2023-03-01T11:41:32;7.20;66.40
32524;DHT22;18965;52.242;20.886;2023-03-01T11:49:39;7.20;65.70
32524;DHT22;18965;52.242;20.886;2023-03-01T11:54:42;7.20;66.30
32524;DHT22;18965;52.242;20.886;2023-03-01T11:57:20;7.30;66.30
32524;DHT22;18965;52.242;20.886;2023-03-01T12:03:09;7.30;65.90
32524;DHT22;18965;52.242;20.886;2023-03-01T12:08:49;7.50;66.00
32524;DHT22;18965;52.242;20.886;2023-03-01T12:22:00;9.50;67.50
32524;DHT22;18965;52.242;20.886;2023-03-01T12:32:47;8.30;65.60
32524;DHT22;18965;52.242;20.886;2023-03-01T12:38:06;8.40;66.10
32524;DHT22;18965;52.242;20.886;2023-03-01T12:49:44;8.90;65.50
32524;DHT22;18965;52.242;20.886;2023-03-01T12:55:01;9.10;64.60
32524;DHT22;18965;52.242;20.886;2023-03-01T12:58:23;9.10;64.50
32524;DHT22;18965;52.242;20.886;2023-03-01T13:06:07;9.00;64.50
32524;DHT22;18965;52.242;20.886;2023-03-01T13:09:03;9.00;64.50
32524;DHT22;18965;52.242;20.886;2023-03-01T13:11:29;8.90;64.50
32524;DHT22;18965;52.242;20.886;2023-03-01T13:16:45;8.80;64.80
32524;DHT22;18965;52.242;20.886;2023-03-01T13:19:22;8.80;65.00
32524;DHT22;18965;52.242;20.886;2023-03-01T13:21:50;8.80;65.20
32524;DHT22;18965;52.242;20.886;2023-03-01T13:24:29;8.80;64.50
32524;DHT22;18965;52.242;20.886;2023-03-01T13:27:21;8.80;65.10
32524;DHT22;18965;52.242;20.886;2023-03-01T13:29:52;8.80;65.10
32524;DHT22;18965;52.242;20.886;2023-03-01T13:32:30;8.90;64.70
32524;DHT22;18965;52.242;20.886;2023-03-01T13:37:43;9.00;65.40
32524;DHT22;18965;52.242;20.886;2023-03-01T13:43:23;9.20;65.30
32524;DHT22;18965;52.242;20.886;2023-03-01T13:45:52;9.20;64.90
32524;DHT22;18965;52.242;20.886;2023-03-01T13:48:27;9.40;65.10
32524;DHT22;18965;52.242;20.886;2023-03-01T13:51:03;9.50;64.90
32524;DHT22;18965;52.242;20.886;2023-03-01T13:53:33;9.60;63.90
32524;DHT22;18965;52.242;20.886;2023-03-01T13:56:06;9.60;64.60
32524;DHT22;18965;52.242;20.886;2023-03-01T13:58:53;9.70;64.30
32524;DHT22;18965;52.242;20.886;2023-03-01T14:01:31;9.70;64.40
32524;DHT22;18965;52.242;20.886;2023-03-01T14:03:58;9.80;64.20
32524;DHT22;18965;52.242;20.886;2023-03-01T14:06:26;11.50;65.10
32524;DHT22;18965;52.242;20.886;2023-03-01T14:09:22;9.80;64.00
32524;DHT22;18965;52.242;20.886;2023-03-01T14:14:27;9.90;63.70
32524;DHT22;18965;52.242;20.886;2023-03-01T14:19:40;9.80;63.00
32524;DHT22;18965;52.242;20.886;2023-03-01T14:22:30;9.90;63.70
32524;DHT22;18965;52.242;20.886;2023-03-01T14:25:25;9.90;62.80
32524;DHT22;18965;52.242;20.886;2023-03-01T14:30:27;9.90;63.60
32524;DHT22;18965;52.242;20.886;2023-03-01T14:33:00;9.80;62.60
32524;DHT22;18965;52.242;20.886;2023-03-01T14:35:28;9.80;63.30
32524;DHT22;18965;52.242;20.886;2023-03-01T14:37:53;9.80;63.40
32524;DHT22;18965;52.242;20.886;2023-03-01T14:40:36;9.80;63.40
32524;DHT22;18965;52.242;20.886;2023-03-01T14:43:09;9.80;64.10
32524;DHT22;18965;52.242;20.886;2023-03-01T14:45:36;9.70;63.40
32524;DHT22;18965;52.242;20.886;2023-03-01T14:48:04;9.60;63.50
32524;DHT22;18965;52.242;20.886;2023-03-01T14:50:34;9.50;63.00
32524;DHT22;18965;52.242;20.886;2023-03-01T14:53:03;8.70;62.70
32524;DHT22;18965;52.242;20.886;2023-03-01T14:55:32;9.30;63.20
32524;DHT22;18965;52.242;20.886;2023-03-01T14:58:03;9.40;63.40
32524;DHT22;18965;52.242;20.886;2023-03-01T15:00:31;9.30;63.40
32524;DHT22;18965;52.242;20.886;2023-03-01T15:03:08;9.20;63.80
32524;DHT22;18965;52.242;20.886;2023-03-01T15:05:40;9.20;63.30
32524;DHT22;18965;52.242;20.886;2023-03-01T15:08:06;9.10;63.40
32524;DHT22;18965;52.242;20.886;2023-03-01T15:10:36;9.00;63.30
32524;DHT22;18965;52.242;20.886;2023-03-01T15:13:23;8.90;63.70
32524;DHT22;18965;52.242;20.886;2023-03-01T15:15:51;8.80;64.80
32524;DHT22;18965;52.242;20.886;2023-03-01T15:18:22;8.70;64.40
32524;DHT22;18965;52.242;20.886;2023-03-01T15:20:49;8.70;65.10
32524;DHT22;18965;52.242;20.886;2023-03-01T15:23:36;8.60;64.20
32524;DHT22;18965;52.242;20.886;2023-03-01T15:26:03;8.50;64.20
32524;DHT22;18965;52.242;20.886;2023-03-01T15:28:31;8.50;64.50
32524;DHT22;18965;52.242;20.886;2023-03-01T15:36:03;8.40;65.00
32524;DHT22;18965;52.242;20.886;2023-03-01T15:38:56;8.30;64.70
32524;DHT22;18965;52.242;20.886;2023-03-01T15:41:45;8.30;64.70
32524;DHT22;18965;52.242;20.886;2023-03-01T15:44:26;8.20;64.80
32524;DHT22;18965;52.242;20.886;2023-03-01T15:46:52;8.10;64.90
32524;DHT22;18965;52.242;20.886;2023-03-01T15:49:27;8.10;64.90
32524;DHT22;18965;52.242;20.886;2023-03-01T15:51:56;8.00;65.10
32524;DHT22;18965;52.242;20.886;2023-03-01T15:54:24;7.90;65.20
32524;DHT22;18965;52.242;20.886;2023-03-01T15:56:50;7.80;65.60
32524;DHT22;18965;52.242;20.886;2023-03-01T15:59:17;7.70;65.20
32524;DHT22;18965;52.242;20.886;2023-03-01T16:01:43;7.70;65.60
32524;DHT22;18965;52.242;20.886;2023-03-01T16:04:13;7.70;66.00
32524;DHT22;18965;52.242;20.886;2023-03-01T16:11:44;7.50;66.20
32524;DHT22;18965;52.242;20.886;2023-03-01T16:14:10;7.50;66.40
32524;DHT22;18965;52.242;20.886;2023-03-01T16:16:36;7.40;66.70
32524;DHT22;18965;52.242;20.886;2023-03-01T16:23:53;7.20;66.70
32524;DHT22;18965;52.242;20.886;2023-03-01T16:26:19;7.20;66.80
32524;DHT22;18965;52.242;20.886;2023-03-01T16:28:45;7.20;67.00
32524;DHT22;18965;52.242;20.886;2023-03-01T16:31:13;7.10;67.20
32524;DHT22;18965;52.242;20.886;2023-03-01T16:33:41;7.10;67.80
32524;DHT22;18965;52.242;20.886;2023-03-01T16:36:09;7.10;67.50
32524;DHT22;18965;52.242;20.886;2023-03-01T16:38:36;7.70;68.60
32524;DHT22;18965;52.242;20.886;2023-03-01T16:43:29;7.10;67.90
32524;DHT22;18965;52.242;20.886;2023-03-01T16:48:21;7.00;68.00
32524;DHT22;18965;52.242;20.886;2023-03-01T16:50:56;7.00;68.10
32524;DHT22;18965;52.242;20.886;2023-03-01T16:53:22;6.90;68.20
32524;DHT22;18965;52.242;20.886;2023-03-01T16:55:54;6.90;68.30
32524;DHT22;18965;52.242;20.886;2023-03-01T16:58:19;7.00;68.40
32524;DHT22;18965;52.242;20.886;2023-03-01T17:03:11;6.90;68.40
32524;DHT22;18965;52.242;20.886;2023-03-01T17:05:40;6.80;68.40
32524;DHT22;18965;52.242;20.886;2023-03-01T17:08:06;6.70;68.40
32524;DHT22;18965;52.242;20.886;2023-03-01T17:10:32;6.70;68.40
32524;DHT22;18965;52.242;20.886;2023-03-01T17:12:58;6.60;70.20
32524;DHT22;18965;52.242;20.886;2023-03-01T17:15:24;6.50;68.50
32524;DHT22;18965;52.242;20.886;2023-03-01T17:20:16;6.30;68.50
32524;DHT22;18965;52.242;20.886;2023-03-01T17:25:10;6.10;69.00
32524;DHT22;18965;52.242;20.886;2023-03-01T17:27:37;6.10;72.60
32524;DHT22;18965;52.242;20.886;2023-03-01T17:30:04;5.90;68.90
32524;DHT22;18965;52.242;20.886;2023-03-01T17:34:56;5.80;69.10
32524;DHT22;18965;52.242;20.886;2023-03-01T17:39:47;5.80;75.70
32524;DHT22;18965;52.242;20.886;2023-03-01T17:44:39;5.60;69.50
32524;DHT22;18965;52.242;20.886;2023-03-01T17:49:31;5.40;71.60
32524;DHT22;18965;52.242;20.886;2023-03-01T17:56:50;5.20;69.90
32524;DHT22;18965;52.242;20.886;2023-03-01T18:06:37;4.90;70.30
32524;DHT22;18965;52.242;20.886;2023-03-01T18:11:33;4.80;70.40
32524;DHT22;18965;52.242;20.886;2023-03-01T18:14:00;4.70;70.50
32524;DHT22;18965;52.242;20.886;2023-03-01T18:18:54;4.60;70.80
32524;DHT22;18965;52.242;20.886;2023-03-01T18:21:20;4.40;76.70
32524;DHT22;18965;52.242;20.886;2023-03-01T18:23:48;4.80;71.70
32524;DHT22;18965;52.242;20.886;2023-03-01T18:26:14;4.40;71.10
32524;DHT22;18965;52.242;20.886;2023-03-01T18:28:42;3.60;70.90
32524;DHT22;18965;52.242;20.886;2023-03-01T18:31:13;4.30;71.30
32524;DHT22;18965;52.242;20.886;2023-03-01T18:33:39;3.40;71.80
32524;DHT22;18965;52.242;20.886;2023-03-01T18:36:06;4.30;72.60
32524;DHT22;18965;52.242;20.886;2023-03-01T18:38:40;4.30;76.70
32524;DHT22;18965;52.242;20.886;2023-03-01T18:43:31;4.40;72.80
32524;DHT22;18965;52.242;20.886;2023-03-01T18:45:58;4.00;71.80
32524;DHT22;18965;52.242;20.886;2023-03-01T18:48:24;4.00;71.90
32524;DHT22;18965;52.242;20.886;2023-03-01T18:53:16;3.90;72.50
32524;DHT22;18965;52.242;20.886;2023-03-01T18:55:41;3.90;72.90
32524;DHT22;18965;52.242;20.886;2023-03-01T19:00:33;3.80;72.60
32524;DHT22;18965;52.242;20.886;2023-03-01T19:02:59;3.70;79.60
32524;DHT22;18965;52.242;20.886;2023-03-01T19:05:26;3.70;73.80
32524;DHT22;18965;52.242;20.886;2023-03-01T19:07:52;3.60;72.70
32524;DHT22;18965;52.242;20.886;2023-03-01T19:12:44;3.60;73.00
32524;DHT22;18965;52.242;20.886;2023-03-01T19:15:10;3.60;73.10
32524;DHT22;18965;52.242;20.886;2023-03-01T19:20:02;3.40;73.10
32524;DHT22;18965;52.242;20.886;2023-03-01T19:22:28;3.50;73.10
32524;DHT22;18965;52.242;20.886;2023-03-01T19:24:54;3.30;73.00
32524;DHT22;18965;52.242;20.886;2023-03-01T19:27:19;3.30;73.90
32524;DHT22;18965;52.242;20.886;2023-03-01T19:29:45;3.30;73.50
32524;DHT22;18965;52.242;20.886;2023-03-01T19:34:37;3.30;73.30
32524;DHT22;18965;52.242;20.886;2023-03-01T19:39:31;3.20;73.40
32524;DHT22;18965;52.242;20.886;2023-03-01T19:44:22;3.10;73.80
32524;DHT22;18965;52.242;20.886;2023-03-01T19:46:53;3.20;79.20
32524;DHT22;18965;52.242;20.886;2023-03-01T19:49:19;3.10;74.20
32524;DHT22;18965;52.242;20.886;2023-03-01T19:56:39;3.10;74.00
32524;DHT22;18965;52.242;20.886;2023-03-01T19:59:05;3.70;74.10
32524;DHT22;18965;52.242;20.886;2023-03-01T20:01:32;3.10;74.80
32524;DHT22;18965;52.242;20.886;2023-03-01T20:03:59;2.90;73.40
32524;DHT22;18965;52.242;20.886;2023-03-01T20:08:52;3.00;80.90
32524;DHT22;18965;52.242;20.886;2023-03-01T20:11:19;2.90;73.80
32524;DHT22;18965;52.242;20.886;2023-03-01T20:13:45;3.10;74.90
32524;DHT22;18965;52.242;20.886;2023-03-01T20:16:17;2.90;73.90
32524;DHT22;18965;52.242;20.886;2023-03-01T20:18:43;2.80;75.50
32524;DHT22;18965;52.242;20.886;2023-03-01T20:23:35;2.90;76.00
32524;DHT22;18965;52.242;20.886;2023-03-01T20:26:08;2.90;74.20
32524;DHT22;18965;52.242;20.886;2023-03-01T20:28:35;2.90;74.30
32524;DHT22;18965;52.242;20.886;2023-03-01T20:31:08;2.60;81.20
32524;DHT22;18965;52.242;20.886;2023-03-01T20:33:35;2.80;76.50
32524;DHT22;18965;52.242;20.886;2023-03-01T20:36:02;2.90;76.40
32524;DHT22;18965;52.242;20.886;2023-03-01T20:38:28;2.90;75.80
32524;DHT22;18965;52.242;20.886;2023-03-01T20:41:10;3.00;75.10
32524;DHT22;18965;52.242;20.886;2023-03-01T20:43:37;3.00;75.50